| time (UTC) | temp F | wind direction | speed knots | gust knots | rain 1hr in | rain 24hr in | rain mn in | humidity % | barometer mb |
| 20260902073009 | 56 | 1 | 1.7 | 3.5 | 0.00 | 0.00 | 0.00 | 88 | 1019.9 |
| 20260902071508 | 57 | 1 | 1.7 | 3.5 | 0.00 | 0.00 | 0.00 | 87 | 1019.8 |
| 20260902070008 | 57 | 48 | 0.9 | 3.5 | 0.00 | 0.00 | 0.00 | 87 | 1019.8 |
| 20260902064506 | 57 | 25 | 2.6 | 4.3 | 0.00 | 0.00 | 0.00 | 90 | 1019.6 |
| 20260902063006 | 56 | 11 | 2.6 | 5.2 | 0.00 | 0.00 | 0.00 | 91 | 1019.6 |
| 20260902061507 | 57 | 22 | 2.6 | 6.1 | 0.00 | 0.00 | 0.00 | 91 | 1019.6 |
| 20260902060001 | 56 | 63 | 4.3 | 6.1 | 0.00 | 0.00 | 0.00 | 92 | 1019.5 |
| 20260902054600 | 57 | 28 | 3.5 | 6.1 | 0.00 | 0.00 | 0.00 | 92 | 1019.5 |
| 20260902053100 | 57 | 14 | 3.5 | 6.1 | 0.00 | 0.00 | 0.00 | 92 | 1019.4 |
| 20260902051556 | 57 | 19 | 0.9 | 3.5 | 0.00 | 0.00 | 0.00 | 92 | 1019.2 |
| 20260902050056 | 57 | 52 | 1.7 | 4.3 | 0.00 | 0.00 | 0.00 | 93 | 1019.2 |
| 20260902044552 | 57 | 28 | 2.6 | 4.3 | 0.00 | 0.00 | 0.00 | 93 | 1018.9 |
| 20260902043052 | 57 | 17 | 2.6 | 4.3 | 0.00 | 0.00 | 0.00 | 92 | 1018.7 |
| 20260902041603 | 58 | 24 | 1.7 | 2.6 | 0.00 | 0.00 | 0.00 | 91 | 1018.6 |
| 20260902040046 | 58 | 22 | 1.7 | 2.6 | 0.00 | 0.00 | 0.00 | 90 | 1018.5 |
| 20260902034541 | 58 | 15 | 1.7 | 3.5 | 0.00 | 0.00 | 0.00 | 89 | 1018.3 |
| 20260902033042 | 59 | 92 | 0.0 | 1.7 | 0.00 | 0.00 | 0.00 | 89 | 1018.4 |
| 20260902031539 | 59 | 92 | 0.9 | 1.7 | 0.00 | 0.00 | 0.00 | 88 | 1018.2 |
| 20260902030041 | 59 | 92 | 0.0 | 0.0 | 0.00 | 0.00 | 0.00 | 87 | 1018.2 |
| 20260902024544 | 60 | 92 | 0.0 | 0.9 | 0.00 | 0.00 | 0.00 | 86 | 1018.3 |
| 20260902023044 | 61 | 92 | 0.0 | 1.7 | 0.00 | 0.00 | 0.00 | 85 | 1018.3 |
| 20260902021546 | 60 | 64 | 0.0 | 1.7 | 0.00 | 0.00 | 0.00 | 86 | 1018.3 |
| 20260902020038 | 60 | 65 | 0.0 | 1.7 | 0.00 | 0.00 | 0.00 | 86 | 1018.3 |
| 20260902014541 | 61 | 65 | 0.0 | 2.6 | 0.00 | 0.00 | 0.00 | 86 | 1018.2 |
| 20260902013036 | 61 | 65 | 0.9 | 3.5 | 0.00 | 0.00 | 0.00 | 84 | 1018.2 |
| 20260902011535 | 61 | 81 | 0.9 | 2.6 | 0.00 | 0.00 | 0.00 | 84 | 1018.0 |
| 20260902010035 | 61 | 78 | 0.9 | 3.5 | 0.00 | 0.00 | 0.00 | 83 | 1017.9 |
| 20260902004534 | 62 | 56 | 0.9 | 3.5 | 0.00 | 0.00 | 0.00 | 85 | 1017.8 |
| 20260902003033 | 62 | 120 | 0.9 | 2.6 | 0.00 | 0.00 | 0.00 | 85 | 1017.7 |
| 20260902001532 | 63 | 131 | 1.7 | 2.6 | 0.00 | 0.00 | 0.00 | 83 | 1017.8 |
| 20260902000031 | 63 | 131 | 0.0 | 1.7 | 0.00 | 0.00 | 0.00 | 81 | 1017.6 |
| 20260901234531 | 64 | 131 | 0.0 | 1.7 | 0.00 | 0.00 | 0.00 | 80 | 1017.6 |
| 20260901233049 | 64 | 150 | 0.9 | 3.5 | 0.00 | 0.00 | 0.00 | 79 | 1017.5 |
| 20260901231529 | 65 | 129 | 1.7 | 3.5 | 0.00 | 0.00 | 0.00 | 78 | 1017.4 |
| 20260901230034 | 65 | 148 | 2.6 | 6.1 | 0.00 | 0.00 | 0.00 | 78 | 1017.3 |
| 20260901224527 | 66 | 162 | 5.2 | 7.8 | 0.00 | 0.00 | 0.00 | 77 | 1017.0 |
| 20260901223026 | 67 | 153 | 3.5 | 5.2 | 0.00 | 0.00 | 0.00 | 77 | 1016.9 |
| 20260901221531 | 68 | 158 | 3.5 | 6.1 | 0.00 | 0.00 | 0.00 | 77 | 1016.9 |
| 20260901220024 | 68 | 176 | 4.3 | 7.0 | 0.00 | 0.00 | 0.00 | 77 | 1016.9 |
| 20260901214535 | 68 | 171 | 3.5 | 6.1 | 0.00 | 0.00 | 0.00 | 78 | 1016.8 |
| 20260901213024 | 67 | 185 | 4.3 | 9.6 | 0.00 | 0.00 | 0.00 | 81 | 1016.6 |
| 20260901211522 | 67 | 175 | 5.2 | 7.8 | 0.00 | 0.00 | 0.00 | 81 | 1016.5 |
| 20260901210023 | 67 | 203 | 6.1 | 7.8 | 0.00 | 0.00 | 0.00 | 81 | 1016.4 |
| 20260901204521 | 67 | 170 | 5.2 | 10.4 | 0.00 | 0.00 | 0.00 | 82 | 1016.3 |
| 20260901203020 | 67 | 210 | 6.1 | 10.4 | 0.00 | 0.00 | 0.00 | 80 | 1016.2 |
| 20260901201519 | 68 | 198 | 6.1 | 10.4 | 0.00 | 0.00 | 0.00 | 79 | 1016.1 |
| 20260901200031 | 68 | 194 | 7.8 | 11.3 | 0.00 | 0.00 | 0.00 | 78 | 1016.3 |
| 20260901194519 | 71 | 180 | 7.8 | 13.0 | 0.00 | 0.00 | 0.00 | 70 | 1016.3 |
| 20260901193018 | 71 | 156 | 9.6 | 13.9 | 0.00 | 0.00 | 0.00 | 62 | 1016.3 |
| 20260901191518 | 71 | 171 | 9.6 | 14.8 | 0.00 | 0.00 | 0.00 | 61 | 1016.2 |
| 20260901190020 | 71 | 157 | 9.6 | 15.6 | 0.00 | 0.00 | 0.00 | 63 | 1016.2 |
| 20260901184519 | 71 | 153 | 8.7 | 14.8 | 0.00 | 0.00 | 0.00 | 63 | 1016.1 |
| 20260901183018 | 71 | 153 | 8.7 | 13.9 | 0.00 | 0.00 | 0.00 | 64 | 1016.1 |
| 20260901181519 | 69 | 173 | 6.1 | 10.4 | 0.00 | 0.00 | 0.00 | 76 | 1016.1 |
| 20260901180015 | 69 | 221 | 7.8 | 10.4 | 0.00 | 0.00 | 0.00 | 77 | 1016.1 |
| 20260901174515 | 70 | 198 | 6.1 | 9.6 | 0.00 | 0.00 | 0.00 | 73 | 1016.0 |
| 20260901173014 | 71 | 218 | 5.2 | 8.7 | 0.00 | 0.00 | 0.00 | 75 | 1016.0 |
| 20260901171520 | 71 | 186 | 4.3 | 7.0 | 0.00 | 0.00 | 0.00 | 74 | 1016.1 |
| 20260901170014 | 70 | 158 | 3.5 | 7.8 | 0.00 | 0.00 | 0.00 | 76 | 1016.0 |
| 20260901164514 | 69 | 213 | 4.3 | 8.7 | 0.00 | 0.00 | 0.00 | 77 | 1015.9 |
| 20260901163015 | 69 | 224 | 3.5 | 8.7 | 0.00 | 0.00 | 0.00 | 76 | 1015.9 |
| 20260901161512 | 71 | 162 | 3.5 | 6.1 | 0.00 | 0.00 | 0.00 | 73 | 1016.1 |
| 20260901160012 | 74 | 174 | 2.6 | 5.2 | 0.00 | 0.00 | 0.00 | 66 | 1016.2 |
| 20260901154507 | 71 | 49 | 3.5 | 6.1 | 0.00 | 0.00 | 0.00 | 69 | 1016.3 |
| 20260901153007 | 70 | 309 | 1.7 | 3.5 | 0.00 | 0.00 | 0.00 | 73 | 1016.3 |
| 20260901151504 | 70 | 22 | 2.6 | 5.2 | 0.00 | 0.00 | 0.00 | 73 | 1016.2 |
| 20260901150006 | 69 | 103 | 1.7 | 5.2 | 0.00 | 0.00 | 0.00 | 75 | 1016.3 |
| 20260901144502 | 69 | 150 | 0.9 | 3.5 | 0.00 | 0.00 | 0.00 | 76 | 1016.3 |
| 20260901143102 | 69 | 129 | 2.6 | 4.3 | 0.00 | 0.00 | 0.00 | 73 | 1016.5 |
| 20260901141559 | 69 | 158 | 2.6 | 4.3 | 0.00 | 0.00 | 0.00 | 72 | 1016.6 |
| 20260901140105 | 68 | 103 | 1.7 | 4.3 | 0.00 | 0.00 | 0.00 | 74 | 1016.5 |
| 20260901134553 | 67 | 96 | 1.7 | 3.5 | 0.00 | 0.00 | 0.00 | 74 | 1016.6 |
| 20260901133048 | 64 | 72 | 0.9 | 5.2 | 0.00 | 0.00 | 0.00 | 78 | 1016.6 |
| 20260901131545 | 64 | 36 | 2.6 | 5.2 | 0.00 | 0.00 | 0.00 | 79 | 1016.3 |
| 20260901130043 | 63 | 358 | 2.6 | 5.2 | 0.00 | 0.00 | 0.00 | 80 | 1016.3 |
| 20260901124540 | 61 | 319 | 0.9 | 2.6 | 0.00 | 0.00 | 0.00 | 83 | 1016.3 |
| 20260901123041 | 61 | 356 | 2.6 | 5.2 | 0.00 | 0.00 | 0.00 | 84 | 1016.1 |
| 20260901121537 | 60 | 11 | 0.9 | 4.3 | 0.00 | 0.00 | 0.00 | 86 | 1016.4 |
| 20260901120028 | 59 | 7 | 0.0 | 2.6 | 0.00 | 0.00 | 0.00 | 87 | 1016.2 |
| 20260901114527 | 57 | 353 | 2.6 | 5.2 | 0.00 | 0.00 | 0.00 | 89 | 1016.1 |
| 20260901113023 | 56 | 323 | 1.7 | 3.5 | 0.00 | 0.00 | 0.00 | 91 | 1016.1 |
| 20260901111521 | 55 | 358 | 0.9 | 3.5 | 0.00 | 0.00 | 0.00 | 91 | 1016.0 |
| 20260901110022 | 56 | 323 | 0.9 | 2.6 | 0.00 | 0.00 | 0.00 | 89 | 1015.7 |
| 20260901104524 | 55 | 353 | 0.0 | 3.5 | 0.00 | 0.00 | 0.00 | 91 | 1015.6 |
| 20260901103014 | 55 | 359 | 2.6 | 5.2 | 0.00 | 0.00 | 0.00 | 91 | 1015.3 |
| 20260901101509 | 54 | 356 | 4.3 | 6.1 | 0.00 | 0.00 | 0.00 | 92 | 1015.5 |
| 20260901100007 | 54 | 360 | 3.5 | 4.3 | 0.00 | 0.00 | 0.00 | 93 | 1015.4 |
| 20260901094505 | 54 | 359 | 0.0 | 1.7 | 0.00 | 0.00 | 0.00 | 92 | 1015.6 |
| 20260901093001 | 54 | 352 | 0.0 | 2.6 | 0.00 | 0.00 | 0.00 | 92 | 1015.6 |
| 20260901091624 | 55 | 1 | 0.0 | 3.5 | 0.00 | 0.00 | 0.00 | 91 | 1015.5 |
| 20260901090058 | 55 | 360 | 0.9 | 4.3 | 0.00 | 0.00 | 0.00 | 90 | 1015.6 |
| 20260901084601 | 55 | 352 | 3.5 | 5.2 | 0.00 | 0.00 | 0.00 | 90 | 1015.7 |
| 20260901083058 | 55 | 360 | 2.6 | 4.3 | 0.00 | 0.00 | 0.00 | 89 | 1015.6 |
| 20260901081555 | 56 | 349 | 1.7 | 3.5 | 0.00 | 0.00 | 0.00 | 87 | 1015.6 |
| 20260901080101 | 56 | 352 | 1.7 | 3.5 | 0.00 | 0.00 | 0.00 | 89 | 1015.6 |
| 20260901074613 | 56 | 350 | 1.7 | 4.3 | 0.00 | 0.00 | 0.00 | 88 | 1015.8 |
| 20260901073054 | 56 | 338 | 0.0 | 4.3 | 0.00 | 0.00 | 0.00 | 89 | 1015.6 |